Tervuren Meer informatie Tervuren


Bezoek onze andere website:

Meteotemplate

Home Weather Station

Saratoga


U vindt ons ook hier:

UK Metoffice

European Weather Network

WeatherCloud

Weather Underground

AWEKAS

Citizen Weather Observer Program (CWOP)


Apparatuur in gebruik:

Davis VP2

Meteobridge


METAR rapporten vliegvelden

   
EBBR - Brussels
Gewijzigd: Aug 24 2017 4:50 am
Licht bewolkt  
Licht bewolkt  
   Wind: ZW 14.8 km/h
Wind: ZW 14.8 km/h
Temperatuur: 15°C
Dauwpunt: 13°C
Vochtigheid: 88%
Barometer: 1016 mb
Bewolking: Licht bewolkt
Zicht: meer dan 10 km
Bewolking: Licht bewolkt 1100 ft
EBBR 240250Z 23008KT 9999 FEW011 15/13 Q1016 NOSIG
EBAW - Antwerp
Gewijzigd: Aug 24 2017 4:50 am
Grotendeels bewolkt  
Grotendeels bewolkt  
   Wind: WZW 13 km/h
Wind: WZW 13 km/h
Temperatuur: 16°C
Dauwpunt: 14°C
Vochtigheid: 88%
Barometer: 1015 mb
Bewolking: Grotendeels bewolkt
Zicht: meer dan 10 km
Bewolking: Licht bewolkt 700 ft,
Gedeeltelijk bewolkt 900 ft,
Grotendeels bewolkt 1000 ft
EBAW 240250Z AUTO 24007KT 9999 // FEW007/// SCT009/// BKN010/// 16/14 Q1015
EBCV - Mons/Bergen
Gewijzigd: Aug 24 2017 4:55 am
Grotendeels bewolkt  
Grotendeels bewolkt  
   Wind: ZZW 11.1 km/h
Wind: ZZW 11.1 km/h
Temperatuur: 14°C
Dauwpunt: 13°C
Vochtigheid: 94%
Barometer: 1017 mb
Bewolking: Grotendeels bewolkt
Zicht: meer dan 10 km
Bewolking: Grotendeels bewolkt 20000 ft,
Grotendeels bewolkt 24000 ft
EBCV 240255Z AUTO 21006KT 9999 BKN200/// BKN240/// 14/13 Q1017 BLU
EHBK - Maastricht
Gewijzigd: Aug 24 2017 4:55 am
Bewolking  
Bewolking  
   Wind: WZW 18.5 km/h
Wind: WZW 18.5 km/h
Temperatuur: 16°C
Dauwpunt: 13°C
Vochtigheid: 83%
Barometer: 1015 mb
Bewolking: Bewolking
Zicht: meer dan 10 km
Bewolking: Bewolking 1200 ft
EHBK 240255Z AUTO 24010KT 210V270 9999 OVC012 16/13 Q1015
ELLX - Luxemburg
Gewijzigd: Aug 24 2017 4:50 am
Licht bewolkt  
Licht bewolkt  
   Wind: Westen 16.7 km/h
Wind: Westen 16.7 km/h
Temperatuur: 16°C
Dauwpunt: 14°C
Vochtigheid: 88%
Barometer: 1017 mb
Bewolking: Licht bewolkt
Zicht: meer dan 10 km
Bewolking: Licht bewolkt 800 ft
ELLX 240250Z 27009KT 9999 FEW008 16/14 Q1017 NOSIG
EDLV - Nijmegen
Gewijzigd: Aug 24 2017 4:50 am
Helder  
Helder  
   Wind: WZW 14.8 km/h
Wind: WZW 14.8 km/h
Temperatuur: 17°C
Dauwpunt: 14°C
Vochtigheid: 83%
Barometer: 1015 mb
Zicht: meer dan 10 km
Bewolking: Helder
EDLV 240250Z 24008KT CAVOK 17/14 Q1015
EBOS - Oostende
Gewijzigd: Aug 24 2017 4:50 am
Helder  
Helder  
   Wind: Westen 22.2 km/h
Wind: Westen 22.2 km/h
Temperatuur: 17°C
Dauwpunt: 14°C
Vochtigheid: 83%
Barometer: 1016 mb
Zicht: meer dan 10 km
Bewolking: Helder
EBOS 240250Z 26012KT CAVOK 17/14 Q1016 NOSIG
  

Script ontwikkeld door  Saratoga-weather.org Aangepast voor de template door  Weerstation Leuven